NEODyS-2

Near Earth Objects - Dynamic Site
NEODyS ∴ Observatories ∴ Site 691 ∴ Obs & residuals
Contact »
691  ▹ 
OBSERVATIONS AND RESIDUALS

691-Steward Observatory, Kitt Peak-Spacewatch

Detections | Residuals | Detections & Residuals

[1-200] [201-400] [401-600] [601-800] [801-1000] [1001-1200] [1201-1400] [1401-1600] [1601-1800] [1801-2000] [2001-2200] [2201-2400] [2401-2600] [2601-2800] [2801-3000] [3001-3200] [3201-3400] [3401-3600] [3601-3800] [3801-4000] [4001-4200] [4201-4400] [4401-4600] [4601-4800] [4801-5000] [5001-5200] [5201-5400] [5401-5600] [5601-5800] [5801-6000] [6001-6200] [6201-6400] [6401-6600] [6601-6800] [6801-7000] [7001-7200] [7201-7400] [7401-7600] [7601-7800] [7801-8000] [8001-8200] [8201-8400] [8401-8600] [8601-8800] [8801-9000] [9001-9200] [9201-9400] [9401-9600] [9601-9800] [9801-10000] [10001-10200] [10201-10400] [10401-10600] [10601-10800] [10801-11000] [11001-11200] [11201-11400] [11401-11600] [11601-11800] [11801-12000] [12001-12200] [12201-12400] [12401-12600] [12601-12800] [12801-13000] [13001-13200] [13201-13400] [13401-13600] [13601-13800] [13801-14000] [14001-14200] [14201-14400] [14401-14600] [14601-14800] [14801-15000] [15001-15200] [15201-15400] [15401-15600] [15601-15800] [15801-16000] [16001-16200] [16201-16400] [16401-16600] [16601-16800] [16801-17000] [17001-17200] [17201-17400] [17401-17600] [17601-17800] [17801-18000] [18001-18200] [18201-18400] [18401-18600] [18601-18800] [18801-19000] [19001-19200] [19201-19400] [19401-19600] [19601-19800] [19801-20000] [20001-20200] [20201-20400] [20401-20600] [20601-20800] [20801-21000] [21001-21200] [21201-21400] [21401-21600] [21601-21800] [21801-22000] [22001-22200] [22201-22400] [22401-22600] [22601-22800] [22801-23000] [23001-23200] [23201-23400] [23401-23600] [23601-23800] [23801-24000] [24001-24200] [24201-24400] [24401-24600] [24601-24800] [24801-25000] [25001-25200] [25201-25400] [25401-25600] [25601-25800] [25801-26000] [26001-26200] [26201-26400] [26401-26600] [26601-26800] [26801-27000] [27001-27200] [27201-27400] [27401-27600] [27601-27800] [27801-28000] [28001-28200] [28201-28400] [28401-28600] [28601-28800] [28801-29000] [29001-29200] [29201-29400] [29401-29600] [29601-29800] [29801-30000] [30001-30200] [30201-30400] [30401-30600] [30601-30800] [30801-31000] [31001-31200] [31201-31400] [31401-31600] [31601-31800] [31801-32000] [32001-32200] [32201-32400] [32401-32600] [32601-32800] [32801-33000] [33001-33200] [33201-33400] [33401-33600] [33601-33800] [33801-34000] [34001-34200] [34201-34400] [34401-34600] [34601-34800] [34801-35000] [35001-35200] [35201-35400] [35401-35600] [35601-35800] [35801-36000] [36001-36200] [36201-36400] [36401-36600] [36601-36800] [36801-37000] [37001-37200] [37201-37400] [37401-37600] [37601-37800] [37801-38000] [38001-38200] [38201-38400] [38401-38600] [38601-38800] [38801-39000] [39001-39200] [39201-39400] [39401-39600] [39601-39800] [39801-40000] [40001-40200] [40201-40400] [40401-40600] [40601-40800] [40801-41000] [41001-41200] [41201-41400] [41401-41600] [41601-41800] [41801-42000] [42001-42200] [42201-42400] [42401-42600] [42601-42800] [42801-43000] [43001-43200] [43201-43400] [43401-43600] [43601-43800] [43801-44000] [44001-44200] [44201-44400] [44401-44600] [44601-44800] [44801-45000] [45001-45200] [45201-45400] [45401-45600] [45601-45800] [45801-46000] [46001-46200] [46201-46400] [46401-46600] [46601-46800] [46801-47000] [47001-47200] [47201-47400] [47401-47600] [47601-47800] [47801-48000] [48001-48200] [48201-48400] [48401-48600] [48601-48800] [48801-49000] [49001-49200] [49201-49400] [49401-49600] [49601-49800] [49801-50000] [50001-50200] [50201-50388]

Designation T Tech N Date Right Ascension Declination Apparent Magnitude Star Catalog Site code χ Used A Used M
yr-mo-day precision hr:min:sec precision rms F bias residual deg min sec precision rms F bias residual mag/col rms residual
2015XC1 O C 2016-03-03.13481 1.000E-05 03:59:57.870 1.500E-01 0.500 F -0.113 0.192 +06° 24' 28.50" 1.000E-01 0.500 F 0.207 -0.022 o 691 0.39 Yes No
2007BG O C H 2016-03-03.13730 1.000E-05 03:57:49.160 1.500E-01 0.500 F -0.111 -0.438 +06° 14' 57.20" 1.000E-01 0.500 F 0.196 -0.508 o 691 1.34 Yes No
2015XC1 O C 2016-03-03.13730 1.000E-05 03:59:58.050 1.500E-01 0.500 F -0.113 -1.096 +06° 24' 29.60" 1.000E-01 0.500 F 0.207 -0.023 o 691 2.20 Yes No
2016CT30 O C H 2016-03-03.15223 1.000E-05 05:09:23.700 1.500E-01 0.500 F -0.094 -0.436 +20° 04' 10.80" 1.000E-01 0.500 F 0.204 -0.069 21.2 V 0.70 0.07 o 691 0.90 Yes Yes
2016CT30 O C H 2016-03-03.15472 1.000E-05 05:09:24.120 1.500E-01 0.500 F -0.094 -0.387 +20° 04' 05.80" 1.000E-01 0.500 F 0.204 0.299 21.0 V 0.70 -0.13 o 691 1.00 Yes Yes
2016CY135 O C H 2016-03-03.16843 1.000E-05 06:12:10.910 1.500E-01 0.500 F -0.167 -0.027 +19° 37' 52.20" 1.000E-01 0.500 F 0.221 -0.937 o 691 1.88 Yes No
2016CY135 O C H 2016-03-03.17091 1.000E-05 06:12:10.040 1.500E-01 0.500 F -0.167 -0.172 +19° 37' 53.80" 1.000E-01 0.500 F 0.221 -0.707 o 691 1.46 Yes No
2016CY135 O C H 2016-03-03.17340 1.000E-05 06:12:09.070 1.500E-01 0.500 F -0.167 -1.687 +19° 37' 54.80" 1.000E-01 0.500 F 0.221 -1.075 o 691 3.99 No No
2010GE25 O C 2016-03-03.21547 1.000E-05 09:47:31.590 1.500E-01 0.500 F 0.245 -0.232 -30° 29' 04.80" 1.000E-01 0.500 F 0.028 -0.163 18.9 V 0.70 0.24 o 691 0.58 Yes Yes
2010GE25 O C 2016-03-03.21749 1.000E-05 09:47:31.080 1.500E-01 0.500 F 0.245 -0.259 -30° 29' 18.10" 1.000E-01 0.500 F 0.028 -0.227 19.0 V 0.70 0.34 o 691 0.70 Yes Yes
2010GE25 O C 2016-03-03.21952 1.000E-05 09:47:30.560 1.500E-01 0.500 F 0.245 -0.380 -30° 29' 31.40" 1.000E-01 0.500 F 0.028 -0.229 18.8 V 0.70 0.14 o 691 0.90 Yes Yes
1997XR2 O C 2016-03-03.23438 1.000E-05 10:11:15.650 1.500E-01 0.500 F 0.050 -0.451 -20° 08' 35.90" 1.000E-01 0.500 F -0.006 0.064 20.1 V 0.70 0.06 o 691 0.91 Yes Yes
1997XR2 O C 2016-03-03.23687 1.000E-05 10:11:15.230 1.500E-01 0.500 F 0.050 -0.486 -20° 08' 33.70" 1.000E-01 0.500 F -0.006 0.245 20.2 V 0.70 0.16 o 691 1.09 Yes Yes
1997XR2 O C 2016-03-03.23936 1.000E-05 10:11:14.810 1.500E-01 0.500 F 0.050 -0.519 -20° 08' 31.80" 1.000E-01 0.500 F -0.006 0.125 20.0 V 0.70 -0.04 o 691 1.07 Yes Yes
2016AA9 O C H 2016-03-03.24369 1.000E-05 08:12:19.480 1.500E-01 0.500 F 0.111 0.085 +09° 11' 07.50" 1.000E-01 0.500 F -0.066 -1.031 o 691 2.07 Yes No
2016CX30 O C H 2016-03-03.26403 1.000E-05 10:11:16.860 1.500E-01 0.500 F 0.098 0.495 -19° 28' 39.90" 1.000E-01 0.500 F -0.036 0.092 o 691 1.12 Yes No
2016CX30 O C H 2016-03-03.26629 1.000E-05 10:11:17.350 1.500E-01 0.500 F 0.098 0.811 -19° 28' 52.40" 1.000E-01 0.500 F -0.036 -2.135 o 691 4.12 No No
2016EZ27 O C H 2016-03-03.26933 1.000E-05 10:48:18.180 1.500E-01 0.500 F 0.148 -0.037 -22° 53' 26.60" 1.000E-01 0.500 F -0.070 0.036 21.3 V 0.70 0.14 o 691 0.10 Yes Yes
2016EZ27 O C H 2016-03-03.27231 1.000E-05 10:48:17.730 1.500E-01 0.500 F 0.148 0.668 -22° 53' 29.40" 1.000E-01 0.500 F -0.070 -0.974 o 691 2.38 Yes No
2016EZ27 O C H 2016-03-03.27527 1.000E-05 10:48:17.200 1.500E-01 0.500 F 0.148 0.223 -22° 53' 31.20" 1.000E-01 0.500 F -0.070 -0.997 o 691 2.05 Yes No
2014EK24 O C 2016-03-03.27925 1.000E-05 08:48:06.640 1.500E-01 0.500 F 0.025 -0.188 +17° 10' 57.60" 1.000E-01 0.500 F 0.150 0.005 18.0 V 0.70 -0.28 o 691 0.38 Yes Yes
2014EK24 O C 2016-03-03.28150 1.000E-05 08:48:06.270 1.500E-01 0.500 F 0.025 -0.168 +17° 10' 45.30" 1.000E-01 0.500 F 0.150 0.130 18.2 V 0.70 -0.08 o 691 0.43 Yes Yes
2014EK24 O C 2016-03-03.28376 1.000E-05 08:48:05.900 1.500E-01 0.500 F 0.025 -0.136 +17° 10' 32.70" 1.000E-01 0.500 F 0.150 0.018 18.3 V 0.70 0.02 o 691 0.28 Yes Yes
2016AA9 O C H 2016-03-03.28731 1.000E-05 08:12:18.710 1.500E-01 0.500 F 0.111 0.160 +09° 11' 14.50" 1.000E-01 0.500 F -0.066 -0.600 o 691 1.24 Yes No
2016DO2 O C H 2016-03-03.29074 1.000E-05 09:01:26.530 1.500E-01 0.500 F -0.072 -0.792 +13° 52' 31.60" 1.000E-01 0.500 F 0.209 -0.257 21.0 V 0.70 0.27 o 691 1.82 Yes Yes
2016DO2 O C H 2016-03-03.29300 1.000E-05 09:01:27.390 1.500E-01 0.500 F -0.072 0.314 +13° 52' 30.50" 1.000E-01 0.500 F 0.209 -0.610 o 691 1.43 Yes No
2016DO2 O C H 2016-03-03.29525 1.000E-05 09:01:27.950 1.500E-01 0.500 F -0.072 -2.899 +13° 52' 28.60" 1.000E-01 0.500 F 0.209 -1.764 o 691 6.36 No No
2016AA9 O C H 2016-03-03.31276 1.000E-05 08:12:18.210 1.500E-01 0.500 F 0.111 -0.720 +09° 11' 18.30" 1.000E-01 0.500 F -0.066 -0.589 o 691 1.86 Yes No
2016CP247 O C H 2016-03-03.31714 1.000E-05 10:26:39.060 1.500E-01 0.500 F 0.153 0.111 -03° 45' 25.90" 1.000E-01 0.500 F 0.092 -0.345 o 691 0.73 Yes No
2016CP247 O C H 2016-03-03.31963 1.000E-05 10:26:39.590 1.500E-01 0.500 F 0.153 1.736 -03° 45' 22.10" 1.000E-01 0.500 F 0.092 0.288 o 691 3.49 No No
2016CP247 O C H 2016-03-03.32211 1.000E-05 10:26:39.950 1.500E-01 0.500 F 0.153 0.840 -03° 45' 19.80" 1.000E-01 0.500 F 0.092 -0.567 o 691 2.04 Yes No
2016DF1 O C H 2016-03-03.32616 1.000E-05 09:28:17.890 1.500E-01 0.500 F 0.089 -1.645 +20° 59' 08.10" 1.000E-01 0.500 F 0.263 -0.033 o 691 3.26 No No
2016DF1 O C H 2016-03-03.32980 1.000E-05 09:28:18.470 1.500E-01 0.500 F 0.089 0.654 +20° 59' 00.10" 1.000E-01 0.500 F 0.263 -1.294 o 691 2.93 Yes No
2016DF1 O C H 2016-03-03.33345 1.000E-05 09:28:18.840 1.500E-01 0.500 F 0.089 -0.013 +20° 58' 54.10" 1.000E-01 0.500 F 0.263 -0.532 o 691 1.08 Yes No
2014DF O C H 2016-03-03.33839 1.000E-05 10:22:37.670 1.500E-01 0.500 F 0.115 -1.649 -08° 00' 33.80" 1.000E-01 0.500 F 0.158 -1.079 o 691 3.55 No No
2014DF O C H 2016-03-03.34180 1.000E-05 10:22:37.250 1.500E-01 0.500 F 0.096 -0.021 -08° 00' 40.60" 1.000E-01 0.500 F 0.163 -0.590 o 691 1.38 Yes No
2014DF O C H 2016-03-03.34522 1.000E-05 10:22:36.690 1.500E-01 0.500 F 0.096 -0.473 -08° 00' 47.90" 1.000E-01 0.500 F 0.163 -0.576 o 691 1.66 Yes No
2016DJ O C H 2016-03-03.34887 1.000E-05 10:18:44.520 1.500E-01 0.500 F 0.160 1.152 +04° 20' 52.80" 1.000E-01 0.500 F 0.105 0.308 o 691 2.41 Yes No
2016DJ O C H 2016-03-03.35136 1.000E-05 10:18:43.770 1.500E-01 0.500 F 0.160 -0.239 +04° 20' 48.30" 1.000E-01 0.500 F 0.105 -0.608 o 691 1.32 Yes No
2016DJ O C H 2016-03-03.35384 1.000E-05 10:18:43.190 1.500E-01 0.500 F 0.160 0.862 +04° 20' 44.80" 1.000E-01 0.500 F 0.105 -0.536 o 691 2.05 Yes No
1999FK21 O C 2016-03-03.35717 1.000E-05 11:19:38.960 1.500E-01 0.500 F 0.248 -0.457 -13° 20' 04.40" 1.000E-01 0.500 F -0.048 0.149 o 691 0.96 Yes No
1999FK21 O C 2016-03-03.36038 1.000E-05 11:19:37.570 1.500E-01 0.500 F 0.248 -0.073 -13° 19' 51.10" 1.000E-01 0.500 F -0.048 -0.072 o 691 0.21 Yes No
1999FK21 O C 2016-03-03.36359 1.000E-05 11:19:36.130 1.500E-01 0.500 F 0.248 -0.422 -13° 19' 37.50" 1.000E-01 0.500 F -0.048 0.003 o 691 0.85 Yes No
2015TY178 O C H 2016-03-03.36682 1.000E-05 10:44:57.220 1.500E-01 0.500 F 0.197 0.543 -06° 58' 53.30" 1.000E-01 0.500 F 0.122 -0.797 o 691 1.94 Yes No
2015TY178 O C H 2016-03-03.36931 1.000E-05 10:44:57.430 1.500E-01 0.500 F 0.197 1.113 -06° 58' 45.60" 1.000E-01 0.500 F 0.122 -0.119 o 691 2.25 Yes No
2015TY178 O C H 2016-03-03.37180 1.000E-05 10:44:57.520 1.500E-01 0.500 F 0.197 -0.107 -06° 58' 38.50" 1.000E-01 0.500 F 0.122 -0.042 20.6 V 0.70 1.05 o 691 0.23 Yes Yes
2016CQ195 O C 2016-03-03.37470 1.000E-05 10:42:12.020 1.500E-01 0.500 F 0.039 -0.321 -01° 55' 44.00" 1.000E-01 0.500 F 0.140 0.148 21.0 V 0.70 0.39 o 691 0.71 Yes Yes
2016CQ195 O C 2016-03-03.37719 1.000E-05 10:42:11.680 1.500E-01 0.500 F 0.039 -0.447 -01° 55' 44.40" 1.000E-01 0.500 F 0.140 -0.048 21.0 V 0.70 0.39 o 691 0.90 Yes Yes
2016CQ195 O C 2016-03-03.37968 1.000E-05 10:42:11.370 1.500E-01 0.500 F 0.039 -0.123 -01° 55' 43.90" 1.000E-01 0.500 F 0.140 0.656 20.4 V 0.70 -0.21 o 691 1.34 Yes Yes
2016CB30 O C H 2016-03-03.38328 1.000E-05 09:38:43.170 1.500E-01 0.500 F 0.046 -0.238 +26° 08' 24.70" 1.000E-01 0.500 F 0.263 -0.536 o 691 1.18 Yes No
2016CB30 O C H 2016-03-03.38577 1.000E-05 09:38:43.560 1.500E-01 0.500 F 0.046 -0.224 +26° 08' 20.50" 1.000E-01 0.500 F 0.263 -0.094 20.7 V 0.70 0.41 o 691 0.49 Yes Yes
2016CB30 O C H 2016-03-03.38825 1.000E-05 09:38:44.000 1.500E-01 0.500 F 0.046 0.474 +26° 08' 15.70" 1.000E-01 0.500 F 0.263 -0.265 21.1 V 0.70 0.81 o 691 1.10 Yes Yes
2016EW1 O C H 2016-03-03.39154 1.000E-05 10:31:00.600 1.500E-01 0.500 F 0.131 -0.088 -04° 10' 50.70" 1.000E-01 0.500 F 0.164 0.525 19.9 V 0.70 0.73 o 691 1.11 Yes Yes
2016EW1 O C H 2016-03-03.39287 1.000E-05 10:31:00.380 1.500E-01 0.500 F 0.131 -0.127 -04° 10' 20.90" 1.000E-01 0.500 F 0.164 0.744 20.0 V 0.70 0.83 o 691 1.57 Yes Yes
2016EW1 O C H 2016-03-03.39420 1.000E-05 10:31:00.170 1.500E-01 0.500 F 0.131 -0.022 -04° 09' 52.00" 1.000E-01 0.500 F 0.164 0.052 o 691 0.12 Yes No
2016EL1 O C H 2016-03-03.39592 1.000E-05 11:00:33.800 1.500E-01 0.500 F -0.008 0.688 -05° 17' 37.50" 1.000E-01 0.500 F 0.068 -2.311 o 691 4.41 No No
2016EL1 O C H 2016-03-03.39748 1.000E-05 11:00:34.290 1.500E-01 0.500 F -0.061 -0.220 -05° 18' 07.70" 1.000E-01 0.500 F 0.057 0.168 19.7 V 0.70 0.60 o 691 0.61 Yes Yes
2016EL1 O C H 2016-03-03.39904 1.000E-05 11:00:34.870 1.500E-01 0.500 F -0.061 0.113 -05° 18' 42.00" 1.000E-01 0.500 F 0.057 -1.379 19.7 V 0.70 0.60 o 691 3.09 Yes Yes
2016CY31 O C 2016-03-03.41404 1.000E-05 10:35:32.470 1.500E-01 0.500 F 0.206 -0.260 +07° 00' 14.50" 1.000E-01 0.500 F 0.197 0.111 20.4 V 0.70 0.04 o 691 0.57 Yes Yes
2016CY31 O C 2016-03-03.41653 1.000E-05 10:35:33.100 1.500E-01 0.500 F 0.206 0.014 +07° 00' 17.60" 1.000E-01 0.500 F 0.197 0.026 20.3 V 0.70 -0.06 o 691 0.06 Yes Yes
2016CY31 O C 2016-03-03.41901 1.000E-05 10:35:33.730 1.500E-01 0.500 F 0.206 0.314 +07° 00' 20.30" 1.000E-01 0.500 F 0.197 -0.446 20.7 V 0.70 0.34 o 691 1.10 Yes Yes
2016EB1 O C H 2016-03-03.44771 1.000E-05 11:48:01.760 1.500E-01 0.500 F 0.083 -0.118 +12° 42' 47.10" 1.000E-01 0.500 F 0.237 -2.187 o 691 4.30 No No
2016EB1 O C H 2016-03-03.44973 1.000E-05 11:48:01.560 1.500E-01 0.500 F 0.083 0.294 +12° 42' 33.60" 1.000E-01 0.500 F 0.237 -1.674 o 691 3.34 No No
2016EB1 O C H 2016-03-03.45177 1.000E-05 11:48:01.320 1.500E-01 0.500 F 0.083 0.145 +12° 42' 19.40" 1.000E-01 0.500 F 0.237 -1.710 o 691 3.37 No No
2016DV21 O C H 2016-03-03.49037 1.000E-05 11:16:15.630 1.500E-01 0.500 F 0.196 -0.126 +10° 27' 34.90" 1.000E-01 0.500 F 0.086 0.051 o 691 0.27 Yes No
2016DV21 O C H 2016-03-03.49333 1.000E-05 11:16:15.800 1.500E-01 0.500 F 0.196 0.659 +10° 27' 43.60" 1.000E-01 0.500 F 0.086 -0.467 o 691 1.62 Yes No
2016DV21 O C H 2016-03-03.49628 1.000E-05 11:16:15.900 1.500E-01 0.500 F 0.196 0.410 +10° 27' 52.90" 1.000E-01 0.500 F 0.086 -0.353 o 691 1.09 Yes No
2016BC14 O C 2016-03-03.50175 1.000E-05 15:43:51.980 1.500E-01 0.500 F 0.256 -0.023 +07° 37' 49.90" 1.000E-01 0.500 F 0.245 -0.210 19.1 V 0.70 0.81 o 691 0.42 Yes Yes
2016BC14 O C 2016-03-03.50424 1.000E-05 15:43:52.120 1.500E-01 0.500 F 0.256 0.023 +07° 37' 45.30" 1.000E-01 0.500 F 0.245 0.058 18.8 V 0.70 0.51 o 691 0.13 Yes Yes
2016BC14 O C 2016-03-03.50673 1.000E-05 15:43:52.250 1.500E-01 0.500 F 0.256 -0.077 +07° 37' 40.20" 1.000E-01 0.500 F 0.245 -0.170 18.9 V 0.70 0.61 o 691 0.37 Yes Yes
2016CT30 O C H 2016-03-04.17350 1.000E-05 05:12:18.330 1.500E-01 0.500 F -0.152 0.884 +19° 27' 53.80" 1.000E-01 0.500 F 0.171 -1.628 o 691 3.62 No No
2016CT30 O C H 2016-03-04.17645 1.000E-05 05:12:18.820 1.500E-01 0.500 F -0.152 0.857 +19° 27' 48.50" 1.000E-01 0.500 F 0.171 -0.652 o 691 2.21 Yes No
2016CT30 O C H 2016-03-04.17940 1.000E-05 05:12:19.200 1.500E-01 0.500 F -0.152 -0.728 +19° 27' 42.90" 1.000E-01 0.500 F 0.171 0.024 o 691 1.49 Yes No
2016EV1 O C m 2016-03-04.23261 1.000E-05 08:44:15.640 1.500E-01 0.500 F -0.050 1.073 -03° 34' 54.60" 1.000E-01 0.500 F 0.076 -0.525 21.3 V 0.70 0.06 o 691 2.42 Yes Yes
2016EV1 O C m 2016-03-04.23579 1.000E-05 08:44:17.200 1.500E-01 0.500 F -0.050 -2.230 -03° 34' 41.70" 1.000E-01 0.500 F 0.076 -1.825 o 691 5.69 No No
2016EV1 O C m 2016-03-04.23896 1.000E-05 08:44:19.210 1.500E-01 0.500 F -0.050 1.298 -03° 34' 24.80" 1.000E-01 0.500 F 0.076 0.924 22.0 V 0.70 0.76 o 691 3.15 No Yes
2016EN1 O C m 2016-03-04.24364 1.000E-05 08:52:32.910 1.500E-01 0.500 F 0.118 0.454 -09° 36' 21.50" 1.000E-01 0.500 F -0.006 0.122 22.0 V 0.70 0.13 o 691 0.95 Yes Yes
2016EN1 O C m 2016-03-04.24891 1.000E-05 08:52:32.640 1.500E-01 0.500 F 0.118 0.211 -09° 36' 12.60" 1.000E-01 0.500 F -0.006 -0.199 22.5 V 0.70 0.63 o 691 0.59 Yes Yes
2016EN1 O C m 2016-03-04.25417 1.000E-05 08:52:32.370 1.500E-01 0.500 F 0.118 -0.042 -09° 36' 02.10" 1.000E-01 0.500 F -0.006 1.094 22.5 V 0.70 0.63 o 691 2.21 Yes Yes
Cuyo O C 2016-03-04.40431 1.000E-05 12:40:51.200 1.500E-01 0.500 F 0.242 -0.542 -07° 41' 17.50" 1.000E-01 0.500 F 0.090 0.135 20.5 V 0.70 1.50 o 691 1.12 Yes Yes
Cuyo O C 2016-03-04.40888 1.000E-05 12:40:50.990 1.500E-01 0.500 F 0.242 -0.333 -07° 41' 15.00" 1.000E-01 0.500 F 0.090 0.051 20.1 V 0.70 1.10 o 691 0.67 Yes Yes
Cuyo O C 2016-03-04.41345 1.000E-05 12:40:50.750 1.500E-01 0.500 F 0.242 -0.571 -07° 41' 12.30" 1.000E-01 0.500 F 0.090 0.167 20.0 V 0.70 1.00 o 691 1.19 Yes Yes
2015XA379 O C H 2016-03-04.43162 1.000E-05 13:45:22.210 1.500E-01 0.500 F 0.193 0.027 -01° 39' 04.60" 1.000E-01 0.500 F 0.069 -0.422 21.2 V 0.70 0.73 o 691 0.85 Yes Yes
2015XA379 O C H 2016-03-04.43619 1.000E-05 13:45:22.520 1.500E-01 0.500 F 0.193 -0.143 -01° 39' 03.20" 1.000E-01 0.500 F 0.069 0.019 21.1 V 0.70 0.62 o 691 0.29 Yes Yes
2015XA379 O C H 2016-03-04.44077 1.000E-05 13:45:22.840 1.500E-01 0.500 F 0.193 -0.173 -01° 39' 02.30" 1.000E-01 0.500 F 0.069 -0.047 21.1 V 0.70 0.62 o 691 0.36 Yes Yes
2008TZ3 O C H 2016-03-04.44601 1.000E-05 13:50:35.180 1.500E-01 0.500 F 0.253 -0.183 +11° 38' 13.50" 1.000E-01 0.500 F 0.211 -0.098 21.4 V 0.70 0.83 o 691 0.41 Yes Yes
2008TZ3 O C H 2016-03-04.45058 1.000E-05 13:50:35.560 1.500E-01 0.500 F 0.253 0.637 +11° 38' 13.90" 1.000E-01 0.500 F 0.211 -0.617 21.6 V 0.70 1.03 o 691 1.77 Yes Yes
2008TZ3 O C H 2016-03-04.45515 1.000E-05 13:50:35.840 1.500E-01 0.500 F 0.253 -0.014 +11° 38' 14.30" 1.000E-01 0.500 F 0.211 -1.132 21.7 V 0.70 1.13 o 691 2.27 Yes Yes
2016CT30 O C m 2016-03-05.16088 1.000E-05 05:15:06.210 1.500E-01 0.500 F -0.194 -0.614 +18° 53' 21.70" 1.000E-01 0.500 F 0.180 -0.344 o 691 1.44 Yes No
2016CT30 O C m 2016-03-05.16406 1.000E-05 05:15:06.780 1.500E-01 0.500 F -0.194 -0.005 +18° 53' 14.70" 1.000E-01 0.500 F 0.180 -0.677 o 691 1.39 Yes No
2016CT30 O C m 2016-03-05.16724 1.000E-05 05:15:07.340 1.500E-01 0.500 F -0.194 0.461 +18° 53' 08.10" 1.000E-01 0.500 F 0.180 -0.610 o 691 1.57 Yes No
2016CS246 O C m 2016-03-05.17064 1.000E-05 05:47:18.030 1.500E-01 0.500 F -0.099 -0.745 +23° 13' 21.90" 1.000E-01 0.500 F 0.230 0.090 20.8 V 0.70 0.12 o 691 1.55 Yes Yes
2016CS246 O C m 2016-03-05.17312 1.000E-05 05:47:18.310 1.500E-01 0.500 F -0.099 -0.103 +23° 13' 32.50" 1.000E-01 0.500 F 0.230 0.084 21.1 V 0.70 0.42 o 691 0.28 Yes Yes
2016CS246 O C m 2016-03-05.17561 1.000E-05 05:47:18.570 1.500E-01 0.500 F -0.099 0.248 +23° 13' 42.90" 1.000E-01 0.500 F 0.230 -0.164 o 691 0.62 Yes No
2009XE11 O C H 2016-03-05.21620 1.000E-05 06:16:36.370 1.500E-01 0.500 F 0.028 -0.106 +31° 05' 23.30" 1.000E-01 0.500 F 0.229 -0.287 20.8 V 0.70 0.34 o 691 0.62 Yes Yes
2009XE11 O C H 2016-03-05.22337 1.000E-05 06:16:36.470 1.500E-01 0.500 F 0.028 -0.110 +31° 05' 25.00" 1.000E-01 0.500 F 0.229 -0.167 o 691 0.41 Yes No
2009XE11 O C H 2016-03-05.23054 1.000E-05 06:16:36.580 1.500E-01 0.500 F 0.028 0.006 +31° 05' 26.60" 1.000E-01 0.500 F 0.229 -0.142 o 691 0.29 Yes No
2016CY135 O C m 2016-03-05.23547 1.000E-05 06:00:55.260 1.500E-01 0.500 F -0.166 0.133 +19° 59' 19.60" 1.000E-01 0.500 F 0.318 -0.229 21.6 V 0.70 0.35 o 691 0.53 Yes Yes
2016CY135 O C m 2016-03-05.23865 1.000E-05 06:00:53.940 1.500E-01 0.500 F -0.166 -1.439 +19° 59' 20.50" 1.000E-01 0.500 F 0.318 -0.821 21.4 V 0.70 0.15 o 691 3.30 No Yes
2016CY135 O C m 2016-03-05.24183 1.000E-05 06:00:52.750 1.500E-01 0.500 F -0.166 -1.206 +19° 59' 23.30" 1.000E-01 0.500 F 0.318 0.497 21.3 V 0.70 0.05 o 691 2.62 Yes Yes
2016EC27 O C H 2016-03-05.26468 1.000E-05 08:16:33.820 1.500E-01 0.500 F 0.059 -0.416 +19° 56' 44.50" 1.000E-01 0.500 F 0.303 -0.102 21.7 V 0.70 0.35 o 691 0.87 Yes Yes
2016EC27 O C H 2016-03-05.26925 1.000E-05 08:16:34.060 1.500E-01 0.500 F 0.059 -0.123 +19° 56' 40.60" 1.000E-01 0.500 F 0.303 -0.223 21.8 V 0.70 0.45 o 691 0.52 Yes Yes
2016EC27 O C H 2016-03-05.27382 1.000E-05 08:16:34.320 1.500E-01 0.500 F 0.059 0.441 +19° 56' 36.70" 1.000E-01 0.500 F 0.303 -0.337 21.7 V 0.70 0.35 o 691 1.12 Yes Yes
2014EK24 O C 2016-03-05.30511 1.000E-05 08:45:01.020 1.500E-01 0.500 F 0.101 -0.284 +14° 17' 30.00" 1.000E-01 0.500 F 0.112 -0.847 18.2 V 0.70 -0.28 o 691 1.79 Yes Yes
2014EK24 O C 2016-03-05.30736 1.000E-05 08:45:00.740 1.500E-01 0.500 F 0.101 -0.074 +14° 17' 19.40" 1.000E-01 0.500 F 0.112 -0.295 18.5 V 0.70 0.02 o 691 0.61 Yes Yes
2014EK24 O C 2016-03-05.30962 1.000E-05 08:45:00.410 1.500E-01 0.500 F 0.101 -0.588 +14° 17' 08.20" 1.000E-01 0.500 F 0.112 -0.289 19.1 V 0.70 0.62 o 691 1.31 Yes Yes
2016CY135 O C m 2016-03-07.11870 1.000E-05 05:49:20.630 1.500E-01 0.500 F -0.052 1.821 +20° 19' 34.80" 1.000E-01 0.500 F 0.206 0.097 21.1 V 0.70 -0.14 o 691 3.64 No Yes
2016CY135 O C m 2016-03-07.12188 1.000E-05 05:49:19.090 1.500E-01 0.500 F -0.052 0.162 +20° 19' 35.50" 1.000E-01 0.500 F 0.206 -1.104 o 691 2.24 Yes No
2016EC27 O C H 2016-03-07.15004 1.000E-05 08:18:36.310 1.500E-01 0.500 F 0.002 1.574 +19° 30' 57.70" 1.000E-01 0.500 F 0.299 -1.214 o 691 3.93 No No
2016EC27 O C H 2016-03-07.15461 1.000E-05 08:18:36.500 1.500E-01 0.500 F 0.002 0.613 +19° 30' 55.00" 1.000E-01 0.500 F 0.299 -0.160 o 691 1.28 Yes No
2016EC27 O C H 2016-03-07.15917 1.000E-05 08:18:36.760 1.500E-01 0.500 F 0.002 0.654 +19° 30' 50.80" 1.000E-01 0.500 F 0.299 -0.607 o 691 1.80 Yes No
2016EU28 O C m 2016-03-07.16374 1.000E-05 08:19:45.370 1.500E-01 0.500 F -0.056 -3.661 -01° 34' 18.40" 1.000E-01 0.500 F 0.123 -0.428 o 691 7.16 No No
2016EU28 O C m 2016-03-07.16622 1.000E-05 08:19:42.960 1.500E-01 0.500 F -0.056 -0.948 -01° 34' 15.10" 1.000E-01 0.500 F 0.123 0.147 o 691 1.98 Yes No
2016EU28 O C m 2016-03-07.16871 1.000E-05 08:19:40.300 1.500E-01 0.500 F -0.056 -1.786 -01° 34' 12.30" 1.000E-01 0.500 F 0.123 0.208 20.9 V 0.70 0.12 o 691 3.49 No Yes
2016CU193 O C m 2016-03-07.17290 1.000E-05 08:23:36.740 1.500E-01 0.500 F -0.025 1.405 -00° 56' 40.60" 1.000E-01 0.500 F 0.138 0.541 21.8 V 0.70 0.00 o 691 3.05 Yes Yes
2016CU193 O C m 2016-03-07.17817 1.000E-05 08:23:35.760 1.500E-01 0.500 F -0.025 0.703 -00° 56' 47.40" 1.000E-01 0.500 F 0.138 -0.450 21.5 V 0.70 -0.30 o 691 1.68 Yes Yes
2016CU193 O C m 2016-03-07.18343 1.000E-05 08:23:34.760 1.500E-01 0.500 F -0.025 -0.326 -00° 56' 53.80" 1.000E-01 0.500 F 0.138 -1.053 o 691 2.23 Yes No
2016EN1 O C m 2016-03-07.19897 1.000E-05 08:50:43.300 1.500E-01 0.500 F 0.018 0.493 -08° 09' 06.00" 1.000E-01 0.500 F 0.019 -1.045 o 691 2.33 Yes No
2016EN1 O C m 2016-03-07.20423 1.000E-05 08:50:43.030 1.500E-01 0.500 F 0.018 -0.504 -08° 08' 54.70" 1.000E-01 0.500 F 0.019 0.837 o 691 1.97 Yes No
2016EN1 O C m 2016-03-07.20950 1.000E-05 08:50:42.880 1.500E-01 0.500 F 0.018 0.286 -08° 08' 46.40" 1.000E-01 0.500 F 0.019 -0.301 o 691 0.84 Yes No
2016EJ56 O C m 2016-03-07.21544 1.000E-05 08:52:05.150 1.500E-01 0.500 F 0.042 -0.631 -02° 29' 56.10" 1.000E-01 0.500 F 0.078 0.521 o 691 1.66 Yes No
2016EJ56 O C m 2016-03-07.22003 1.000E-05 08:52:04.180 1.500E-01 0.500 F 0.042 -1.526 -02° 29' 29.80" 1.000E-01 0.500 F 0.078 2.848 21.0 V 0.70 0.31 o 691 6.38 No Yes
2016EJ56 O C m 2016-03-07.22459 1.000E-05 08:52:03.340 1.500E-01 0.500 F 0.042 -0.561 -02° 29' 10.10" 1.000E-01 0.500 F 0.078 -1.275 21.4 V 0.70 0.71 o 691 2.82 Yes Yes
2016EG55 O C m 2016-03-07.22875 1.000E-05 08:52:31.910 1.500E-01 0.500 F 0.059 -0.135 -03° 24' 57.60" 1.000E-01 0.500 F 0.105 0.918 20.7 V 0.70 0.26 o 691 1.92 Yes Yes
2016EG55 O C m 2016-03-07.23193 1.000E-05 08:52:33.130 1.500E-01 0.500 F 0.059 -0.100 -03° 24' 17.10" 1.000E-01 0.500 F 0.105 -0.034 21.2 V 0.70 0.76 o 691 0.22 Yes Yes
2016EG55 O C m 2016-03-07.23511 1.000E-05 08:52:34.310 1.500E-01 0.500 F 0.059 -0.663 -03° 23' 36.30" 1.000E-01 0.500 F 0.105 -0.683 o 691 1.97 Yes No
2016ER28 O C m 2016-03-07.23942 1.000E-05 09:46:51.080 1.500E-01 0.500 F 0.196 0.200 +10° 23' 59.60" 1.000E-01 0.500 F 0.215 0.420 21.4 V 0.70 0.40 o 691 0.94 Yes Yes
2016ER28 O C m 2016-03-07.24329 1.000E-05 09:46:51.470 1.500E-01 0.500 F 0.196 -0.627 +10° 24' 14.20" 1.000E-01 0.500 F 0.215 -1.045 21.6 V 0.70 0.60 o 691 2.46 Yes Yes
2016ER28 O C m 2016-03-07.24716 1.000E-05 09:46:51.930 1.500E-01 0.500 F 0.176 -0.399 +10° 24' 32.40" 1.000E-01 0.500 F 0.206 1.107 21.2 V 0.70 0.20 o 691 2.38 Yes Yes
2016EG56 O C H 2016-03-07.25566 1.000E-05 09:57:13.060 1.500E-01 0.500 F 0.081 -0.598 -02° 13' 08.80" 1.000E-01 0.500 F 0.079 0.413 o 691 1.47 Yes No
2016EG56 O C H 2016-03-07.26023 1.000E-05 09:57:13.270 1.500E-01 0.500 F 0.081 -0.471 -02° 13' 05.80" 1.000E-01 0.500 F 0.079 -0.456 o 691 1.33 Yes No
2016EG56 O C H 2016-03-07.26480 1.000E-05 09:57:13.510 1.500E-01 0.500 F 0.081 0.106 -02° 13' 01.00" 1.000E-01 0.500 F 0.079 0.474 o 691 0.98 Yes No
2016EH55 O C m 2016-03-07.28298 1.000E-05 10:04:08.640 1.500E-01 0.500 F 0.067 0.107 +12° 24' 34.10" 1.000E-01 0.500 F 0.247 0.017 21.1 V 0.70 0.21 o 691 0.24 Yes Yes
2016EH55 O C m 2016-03-07.28593 1.000E-05 10:04:09.700 1.500E-01 0.500 F 0.067 -0.276 +12° 24' 29.90" 1.000E-01 0.500 F 0.247 0.443 21.3 V 0.70 0.41 o 691 1.11 Yes Yes
2016EH55 O C m 2016-03-07.28888 1.000E-05 10:04:10.760 1.500E-01 0.500 F 0.067 -0.655 +12° 24' 24.10" 1.000E-01 0.500 F 0.247 -0.727 21.1 V 0.70 0.21 o 691 2.11 Yes Yes
2000DM1 O C 2016-03-07.29300 1.000E-05 10:23:41.660 1.500E-01 0.500 F 0.099 -0.926 +10° 14' 43.00" 1.000E-01 0.500 F 0.194 0.382 o 691 2.01 Yes No
2000DM1 O C 2016-03-07.29757 1.000E-05 10:23:40.650 1.500E-01 0.500 F 0.099 -0.184 +10° 14' 39.80" 1.000E-01 0.500 F 0.194 -0.115 o 691 0.43 Yes No
2000DM1 O C 2016-03-07.30214 1.000E-05 10:23:39.590 1.500E-01 0.500 F 0.099 -0.179 +10° 14' 37.10" 1.000E-01 0.500 F 0.194 -0.110 o 691 0.42 Yes No
2016CQ195 O C H 2016-03-07.33631 1.000E-05 10:33:22.470 1.500E-01 0.500 F 0.226 -0.346 -02° 00' 18.80" 1.000E-01 0.500 F 0.077 0.173 o 691 0.78 Yes No
2016CQ195 O C H 2016-03-07.34019 1.000E-05 10:33:21.930 1.500E-01 0.500 F 0.226 -0.357 -02° 00' 19.00" 1.000E-01 0.500 F 0.077 0.191 o 691 0.81 Yes No
2016CQ195 O C H 2016-03-07.34407 1.000E-05 10:33:21.400 1.500E-01 0.500 F 0.226 -0.219 -02° 00' 19.50" 1.000E-01 0.500 F 0.077 -0.092 o 691 0.48 Yes No
2016CS29 O C 2016-03-09.10899 1.000E-05 05:35:13.980 1.500E-01 0.500 F -0.072 -0.078 +06° 51' 47.30" 1.000E-01 0.500 F 0.179 -0.091 19.9 V 0.70 -0.18 o 691 0.24 Yes Yes
2016CS29 O C 2016-03-09.11148 1.000E-05 05:35:13.950 1.500E-01 0.500 F -0.072 -0.869 +06° 51' 50.90" 1.000E-01 0.500 F 0.179 -0.503 19.9 V 0.70 -0.18 o 691 2.01 Yes Yes
2016CS29 O C 2016-03-09.11396 1.000E-05 05:35:13.990 1.500E-01 0.500 F -0.072 -0.617 +06° 51' 55.60" 1.000E-01 0.500 F 0.179 0.202 19.8 V 0.70 -0.28 o 691 1.30 Yes Yes
2005EQ95 O C H 2016-03-09.27709 1.000E-05 12:04:06.170 1.500E-01 0.500 F 0.182 -0.647 -09° 38' 28.40" 1.000E-01 0.500 F -0.067 0.572 20.6 V 0.70 0.24 o 691 1.74 Yes Yes
2005EQ95 O C H 2016-03-09.27957 1.000E-05 12:04:05.800 1.500E-01 0.500 F 0.182 0.272 -09° 38' 20.40" 1.000E-01 0.500 F -0.067 -0.028 20.8 V 0.70 0.44 o 691 0.55 Yes Yes
2005EQ95 O C H 2016-03-09.28206 1.000E-05 12:04:05.400 1.500E-01 0.500 F 0.182 0.778 -09° 38' 11.40" 1.000E-01 0.500 F -0.067 0.337 20.6 V 0.70 0.24 o 691 1.71 Yes Yes
2015TY178 O C 2016-03-09.32853 1.000E-05 10:52:15.120 1.500E-01 0.500 F 0.156 -0.508 -02° 48' 01.40" 1.000E-01 0.500 F 0.061 0.468 19.8 V 0.70 0.04 o 691 1.39 Yes Yes
2015TY178 O C 2016-03-09.33241 1.000E-05 10:52:15.320 1.500E-01 0.500 F 0.156 -0.581 -02° 47' 52.80" 1.000E-01 0.500 F 0.061 0.344 19.7 V 0.70 -0.06 o 691 1.36 Yes Yes
2015TY178 O C 2016-03-09.33630 1.000E-05 10:52:15.530 1.500E-01 0.500 F 0.156 -0.515 -02° 47' 44.20" 1.000E-01 0.500 F 0.061 0.197 19.7 V 0.70 -0.06 o 691 1.11 Yes Yes
2016EA27 O C 2016-03-09.34861 1.000E-05 11:57:14.520 1.500E-01 0.500 F 0.159 -0.128 +25° 19' 28.20" 1.000E-01 0.500 F 0.220 -0.644 19.2 V 0.70 -0.47 o 691 1.33 Yes Yes
2016EA27 O C 2016-03-09.35041 1.000E-05 11:57:14.630 1.500E-01 0.500 F 0.159 -0.064 +25° 19' 41.20" 1.000E-01 0.500 F 0.220 -0.094 19.5 V 0.70 -0.17 o 691 0.23 Yes Yes
2016EA27 O C 2016-03-09.35221 1.000E-05 11:57:14.710 1.500E-01 0.500 F 0.159 -0.408 +25° 19' 53.70" 1.000E-01 0.500 F 0.220 -0.043 19.6 V 0.70 -0.07 o 691 0.83 Yes Yes
2016CS247 O C H 2016-03-09.49862 1.000E-05 12:17:32.520 1.500E-01 0.500 F 0.221 0.792 -09° 29' 41.90" 1.000E-01 0.500 F -0.137 -0.449 o 691 1.84 Yes No
2016CS247 O C H 2016-03-09.50334 1.000E-05 12:17:32.420 1.500E-01 0.500 F 0.221 1.210 -09° 29' 44.90" 1.000E-01 0.500 F -0.137 -0.601 o 691 2.72 Yes No
2016CS247 O C H 2016-03-09.50806 1.000E-05 12:17:32.300 1.500E-01 0.500 F 0.221 1.259 -09° 29' 47.40" 1.000E-01 0.500 F -0.137 -0.263 o 691 2.59 Yes No
2015XA379 O C 2016-03-09.51643 1.000E-05 13:54:05.180 1.500E-01 0.500 F 0.133 0.023 -01° 20' 14.50" 1.000E-01 0.500 F 0.223 0.096 19.9 V 0.70 -0.83 o 691 0.20 Yes Yes
2015XA379 O C 2016-03-09.52448 1.000E-05 13:54:05.360 1.500E-01 0.500 F 0.133 -0.645 -01° 20' 12.60" 1.000E-01 0.500 F 0.223 0.049 20.0 V 0.70 -0.73 o 691 1.30 Yes Yes
2015XA379 O C 2016-03-09.53252 1.000E-05 13:54:05.620 1.500E-01 0.500 F 0.133 -0.308 -01° 20' 10.90" 1.000E-01 0.500 F 0.223 -0.202 20.1 V 0.70 -0.63 o 691 0.74 Yes Yes
2015DR215 O C H 2016-03-10.11229 1.000E-05 03:50:33.840 1.500E-01 0.500 F -0.182 0.315 -05° 12' 30.30" 1.000E-01 0.500 F 0.165 -0.576 o 691 1.36 Yes No
2015DR215 O C H 2016-03-10.11385 1.000E-05 03:50:34.880 1.500E-01 0.500 F -0.182 -0.275 -05° 12' 24.20" 1.000E-01 0.500 F 0.165 -0.363 o 691 0.95 Yes No
2015DR215 O C H 2016-03-10.11541 1.000E-05 03:50:36.050 1.500E-01 0.500 F -0.182 1.072 -05° 12' 18.50" 1.000E-01 0.500 F 0.165 -0.550 o 691 2.53 Yes No
2005SC O C H 2016-03-10.11907 1.000E-05 05:45:11.130 1.500E-01 0.500 F -0.100 0.479 +06° 32' 51.30" 1.000E-01 0.500 F 0.142 -0.783 o 691 1.86 Yes No
2005SC O C H 2016-03-10.12155 1.000E-05 05:45:12.520 1.500E-01 0.500 F -0.100 0.556 +06° 32' 50.80" 1.000E-01 0.500 F 0.142 -0.761 o 691 1.91 Yes No
2005SC O C H 2016-03-10.12404 1.000E-05 05:45:13.900 1.500E-01 0.500 F -0.100 0.401 +06° 32' 50.50" 1.000E-01 0.500 F 0.142 -0.537 o 691 1.36 Yes No
2014EK24 O C 2016-03-10.14738 1.000E-05 08:40:44.050 1.500E-01 0.612 F 0.122 -0.216 +08° 36' 06.40" 1.000E-01 0.612 F 0.153 -0.084 18.6 V 0.70 -0.33 o 691 0.38 Yes Yes
2014EK24 O C 2016-03-10.14917 1.000E-05 08:40:43.900 1.500E-01 0.612 F 0.122 -0.293 +08° 35' 59.90" 1.000E-01 0.612 F 0.153 -0.082 18.9 V 0.70 -0.03 o 691 0.50 Yes Yes
2014EK24 O C 2016-03-10.15096 1.000E-05 08:40:43.770 1.500E-01 0.612 F 0.122 -0.068 +08° 35' 53.40" 1.000E-01 0.612 F 0.153 -0.079 19.3 V 0.70 0.37 o 691 0.17 Yes Yes
2015FJ36 O C 2016-03-10.15409 1.000E-05 09:47:36.750 1.500E-01 0.500 F 0.163 -0.357 -07° 39' 09.50" 1.000E-01 0.500 F -0.041 0.223 20.1 V 0.70 -0.31 o 691 0.85 Yes Yes
2015FJ36 O C 2016-03-10.15658 1.000E-05 09:47:36.420 1.500E-01 0.500 F 0.163 -0.703 -07° 39' 05.60" 1.000E-01 0.500 F -0.041 0.318 20.0 V 0.70 -0.41 o 691 1.56 Yes Yes
2015FJ36 O C 2016-03-10.15907 1.000E-05 09:47:36.150 1.500E-01 0.500 F 0.163 -0.153 -07° 39' 02.60" 1.000E-01 0.500 F -0.041 -0.487 20.2 V 0.70 -0.21 o 691 1.02 Yes Yes
2016CP247 O C 2016-03-10.18431 1.000E-05 10:48:19.660 1.500E-01 0.500 F 0.167 0.171 -01° 12' 39.50" 1.000E-01 0.500 F 0.129 0.152 20.8 V 0.70 0.06 o 691 0.46 Yes Yes
2016CP247 O C 2016-03-10.18749 1.000E-05 10:48:20.190 1.500E-01 0.500 F 0.167 -0.225 -01° 12' 35.50" 1.000E-01 0.500 F 0.129 -0.186 21.1 V 0.70 0.36 o 691 0.59 Yes Yes
2016CP247 O C 2016-03-10.19067 1.000E-05 10:48:20.770 1.500E-01 0.500 F 0.167 0.141 -01° 12' 30.50" 1.000E-01 0.500 F 0.129 0.475 21.2 V 0.70 0.46 o 691 1.00 Yes Yes
2002EZ11 O C 2016-03-10.21122 1.000E-05 11:15:10.050 1.500E-01 0.612 F 0.067 -0.116 +11° 03' 14.30" 1.000E-01 0.612 F 0.142 -0.126 18.9 V 0.70 0.42 o 691 0.28 Yes Yes
2002EZ11 O C 2016-03-10.21371 1.000E-05 11:15:09.470 1.500E-01 0.612 F 0.067 -0.065 +11° 03' 17.20" 1.000E-01 0.612 F 0.142 -0.155 18.9 V 0.70 0.42 o 691 0.28 Yes Yes
2002EZ11 O C 2016-03-10.21620 1.000E-05 11:15:08.890 1.500E-01 0.612 F 0.067 -0.012 +11° 03' 20.10" 1.000E-01 0.612 F 0.142 -0.184 18.9 V 0.70 0.42 o 691 0.30 Yes Yes
2002EZ11 O C 2016-03-10.23022 1.000E-05 11:15:05.600 1.500E-01 0.612 F 0.067 -0.054 +11° 03' 37.10" 1.000E-01 0.612 F 0.142 0.340 18.8 V 0.70 0.32 o 691 0.56 Yes Yes
2002EZ11 O C 2016-03-10.23202 1.000E-05 11:15:05.170 1.500E-01 0.612 F 0.067 -0.169 +11° 03' 38.80" 1.000E-01 0.612 F 0.142 -0.073 18.8 V 0.70 0.32 o 691 0.30 Yes Yes
2002EZ11 O C 2016-03-10.23381 1.000E-05 11:15:04.750 1.500E-01 0.612 F 0.067 -0.171 +11° 03' 41.10" 1.000E-01 0.612 F 0.142 0.126 18.7 V 0.70 0.22 o 691 0.35 Yes Yes
2016DV21 O C 2016-03-10.23649 1.000E-05 11:21:56.240 1.500E-01 0.500 F 0.205 -0.230 +16° 56' 54.60" 1.000E-01 0.500 F 0.213 0.055 20.1 V 0.70 -0.32 o 691 0.48 Yes Yes
2016DV21 O C 2016-03-10.23898 1.000E-05 11:21:56.370 1.500E-01 0.500 F 0.205 0.004 +16° 57' 04.40" 1.000E-01 0.500 F 0.213 0.426 20.3 V 0.70 -0.12 o 691 0.86 Yes Yes
2016DV21 O C 2016-03-10.24147 1.000E-05 11:21:56.470 1.500E-01 0.500 F 0.205 -0.190 +16° 57' 13.60" 1.000E-01 0.500 F 0.213 0.198 20.5 V 0.70 0.08 o 691 0.55 Yes Yes
2005EQ95 O C H 2016-03-10.24505 1.000E-05 12:01:44.690 1.500E-01 0.500 F 0.171 -0.143 -08° 44' 29.20" 1.000E-01 0.500 F -0.047 -0.307 20.3 V 0.70 -0.12 o 691 0.68 Yes Yes
2005EQ95 O C H 2016-03-10.24754 1.000E-05 12:01:44.380 1.500E-01 0.500 F 0.171 1.099 -08° 44' 22.50" 1.000E-01 0.500 F -0.047 -1.518 o 691 3.72 No No
2005EQ95 O C H 2016-03-10.25003 1.000E-05 12:01:43.920 1.500E-01 0.500 F 0.171 0.124 -08° 44' 13.10" 1.000E-01 0.500 F -0.047 -0.029 20.7 V 0.70 0.28 o 691 0.26 Yes Yes
2014EK24 O C 2016-03-10.30601 1.000E-05 08:40:31.250 1.500E-01 0.612 F 0.122 -0.341 +08° 26' 24.60" 1.000E-01 0.612 F 0.153 0.288 19.1 V 0.70 0.15 o 691 0.73 Yes Yes
2014EK24 O C 2016-03-10.30757 1.000E-05 08:40:31.150 1.500E-01 0.612 F 0.122 -0.156 +08° 26' 18.50" 1.000E-01 0.612 F 0.153 -0.033 19.0 V 0.70 0.05 o 691 0.26 Yes Yes
2014EK24 O C 2016-03-10.30913 1.000E-05 08:40:31.040 1.500E-01 0.612 F 0.122 -0.128 +08° 26' 12.70" 1.000E-01 0.612 F 0.153 -0.053 19.3 V 0.70 0.35 o 691 0.23 Yes Yes
2012WK4 O C H 2016-03-10.31549 1.000E-05 11:34:04.920 1.500E-01 0.500 F 0.230 0.019 +07° 43' 17.70" 1.000E-01 0.500 F 0.216 0.027 21.3 V 0.70 0.39 o 691 0.07 Yes Yes
2012WK4 O C H 2016-03-10.31797 1.000E-05 11:34:04.590 1.500E-01 0.500 F 0.230 -0.054 +07° 43' 20.70" 1.000E-01 0.500 F 0.216 -0.276 21.2 V 0.70 0.29 o 691 0.57 Yes Yes
2012WK4 O C H 2016-03-10.32047 1.000E-05 11:34:04.210 1.500E-01 0.500 F 0.230 -0.831 +07° 43' 24.40" 1.000E-01 0.500 F 0.216 0.095 21.2 V 0.70 0.29 o 691 1.69 Yes Yes
2016BC14 O C 2016-03-10.37184 1.000E-05 15:54:55.430 1.500E-01 0.500 F 0.175 -0.065 +02° 44' 19.30" 1.000E-01 0.500 F 0.111 0.124 17.6 V 0.70 -0.03 o 691 0.28 Yes Yes
2016BC14 O C 2016-03-10.37340 1.000E-05 15:54:55.550 1.500E-01 0.500 F 0.175 -0.123 +02° 44' 13.90" 1.000E-01 0.500 F 0.111 -0.074 17.5 V 0.70 -0.13 o 691 0.29 Yes Yes
2016BC14 O C 2016-03-10.37496 1.000E-05 15:54:55.680 1.500E-01 0.500 F 0.175 -0.025 +02° 44' 08.80" 1.000E-01 0.500 F 0.111 0.029 17.5 V 0.70 -0.13 o 691 0.08 Yes Yes
2015TY178 O C 2016-03-11.16925 1.000E-05 10:54:13.950 1.500E-01 0.500 F 0.190 -0.188 -01° 41' 36.10" 1.000E-01 0.500 F 0.104 0.289 20.1 V 0.70 0.24 o 691 0.69 Yes Yes
2015TY178 O C 2016-03-11.17175 1.000E-05 10:54:14.070 1.500E-01 0.500 F 0.190 -0.376 -01° 41' 31.10" 1.000E-01 0.500 F 0.104 0.090 19.9 V 0.70 0.03 o 691 0.78 Yes Yes
2015TY178 O C 2016-03-11.17424 1.000E-05 10:54:14.210 1.500E-01 0.500 F 0.190 -0.250 -01° 41' 26.00" 1.000E-01 0.500 F 0.104 0.011 20.1 V 0.70 0.23 o 691 0.50 Yes Yes
1998SH2 O C H 2016-03-11.21428 1.000E-05 11:26:09.470 1.500E-01 0.500 F 0.228 0.075 +05° 28' 58.80" 1.000E-01 0.500 F 0.287 0.125 o 691 0.29 Yes No
1998SH2 O C H 2016-03-11.21815 1.000E-05 11:26:09.070 1.500E-01 0.500 F 0.228 0.435 +05° 29' 00.50" 1.000E-01 0.500 F 0.287 -0.388 o 691 1.17 Yes No

[1-200] [201-400] [401-600] [601-800] [801-1000] [1001-1200] [1201-1400] [1401-1600] [1601-1800] [1801-2000] [2001-2200] [2201-2400] [2401-2600] [2601-2800] [2801-3000] [3001-3200] [3201-3400] [3401-3600] [3601-3800] [3801-4000] [4001-4200] [4201-4400] [4401-4600] [4601-4800] [4801-5000] [5001-5200] [5201-5400] [5401-5600] [5601-5800] [5801-6000] [6001-6200] [6201-6400] [6401-6600] [6601-6800] [6801-7000] [7001-7200] [7201-7400] [7401-7600] [7601-7800] [7801-8000] [8001-8200] [8201-8400] [8401-8600] [8601-8800] [8801-9000] [9001-9200] [9201-9400] [9401-9600] [9601-9800] [9801-10000] [10001-10200] [10201-10400] [10401-10600] [10601-10800] [10801-11000] [11001-11200] [11201-11400] [11401-11600] [11601-11800] [11801-12000] [12001-12200] [12201-12400] [12401-12600] [12601-12800] [12801-13000] [13001-13200] [13201-13400] [13401-13600] [13601-13800] [13801-14000] [14001-14200] [14201-14400] [14401-14600] [14601-14800] [14801-15000] [15001-15200] [15201-15400] [15401-15600] [15601-15800] [15801-16000] [16001-16200] [16201-16400] [16401-16600] [16601-16800] [16801-17000] [17001-17200] [17201-17400] [17401-17600] [17601-17800] [17801-18000] [18001-18200] [18201-18400] [18401-18600] [18601-18800] [18801-19000] [19001-19200] [19201-19400] [19401-19600] [19601-19800] [19801-20000] [20001-20200] [20201-20400] [20401-20600] [20601-20800] [20801-21000] [21001-21200] [21201-21400] [21401-21600] [21601-21800] [21801-22000] [22001-22200] [22201-22400] [22401-22600] [22601-22800] [22801-23000] [23001-23200] [23201-23400] [23401-23600] [23601-23800] [23801-24000] [24001-24200] [24201-24400] [24401-24600] [24601-24800] [24801-25000] [25001-25200] [25201-25400] [25401-25600] [25601-25800] [25801-26000] [26001-26200] [26201-26400] [26401-26600] [26601-26800] [26801-27000] [27001-27200] [27201-27400] [27401-27600] [27601-27800] [27801-28000] [28001-28200] [28201-28400] [28401-28600] [28601-28800] [28801-29000] [29001-29200] [29201-29400] [29401-29600] [29601-29800] [29801-30000] [30001-30200] [30201-30400] [30401-30600] [30601-30800] [30801-31000] [31001-31200] [31201-31400] [31401-31600] [31601-31800] [31801-32000] [32001-32200] [32201-32400] [32401-32600] [32601-32800] [32801-33000] [33001-33200] [33201-33400] [33401-33600] [33601-33800] [33801-34000] [34001-34200] [34201-34400] [34401-34600] [34601-34800] [34801-35000] [35001-35200] [35201-35400] [35401-35600] [35601-35800] [35801-36000] [36001-36200] [36201-36400] [36401-36600] [36601-36800] [36801-37000] [37001-37200] [37201-37400] [37401-37600] [37601-37800] [37801-38000] [38001-38200] [38201-38400] [38401-38600] [38601-38800] [38801-39000] [39001-39200] [39201-39400] [39401-39600] [39601-39800] [39801-40000] [40001-40200] [40201-40400] [40401-40600] [40601-40800] [40801-41000] [41001-41200] [41201-41400] [41401-41600] [41601-41800] [41801-42000] [42001-42200] [42201-42400] [42401-42600] [42601-42800] [42801-43000] [43001-43200] [43201-43400] [43401-43600] [43601-43800] [43801-44000] [44001-44200] [44201-44400] [44401-44600] [44601-44800] [44801-45000] [45001-45200] [45201-45400] [45401-45600] [45601-45800] [45801-46000] [46001-46200] [46201-46400] [46401-46600] [46601-46800] [46801-47000] [47001-47200] [47201-47400] [47401-47600] [47601-47800] [47801-48000] [48001-48200] [48201-48400] [48401-48600] [48601-48800] [48801-49000] [49001-49200] [49201-49400] [49401-49600] [49601-49800] [49801-50000] [50001-50200] [50201-50388]